sensor_id;sensor_type;location;lat;lon;timestamp;P1;P2;P0
40947;PMS5003;49382;-25.924;28.194;2023-04-25T00:02:23;87;84;
40947;PMS5003;49382;-25.924;28.194;2023-04-25T00:04:48;91;88;
40947;PMS5003;49382;-25.924;28.194;2023-04-25T00:07:13;83;81;
40947;PMS5003;49382;-25.924;28.194;2023-04-25T00:09:39;82;80;
40947;PMS5003;49382;-25.924;28.194;2023-04-25T00:12:04;85;84;
40947;PMS5003;49382;-25.924;28.194;2023-04-25T00:16:55;82;80;
40947;PMS5003;49382;-25.924;28.194;2023-04-25T00:19:21;74;74;
40947;PMS5003;49382;-25.924;28.194;2023-04-25T00:21:46;75;73;
40947;PMS5003;49382;-25.924;28.194;2023-04-25T00:24:12;72;72;
40947;PMS5003;49382;-25.924;28.194;2023-04-25T00:26:37;68;67;
40947;PMS5003;49382;-25.924;28.194;2023-04-25T00:29:03;67;66;
40947;PMS5003;49382;-25.924;28.194;2023-04-25T00:31:28;69;69;
40947;PMS5003;49382;-25.924;28.194;2023-04-25T00:33:53;62;60;
40947;PMS5003;49382;-25.924;28.194;2023-04-25T00:36:19;63;60;
40947;PMS5003;49382;-25.924;28.194;2023-04-25T00:38:44;55;55;
40947;PMS5003;49382;-25.924;28.194;2023-04-25T00:41:09;69;67;
40947;PMS5003;49382;-25.924;28.194;2023-04-25T00:43:36;68;66;
40947;PMS5003;49382;-25.924;28.194;2023-04-25T00:46:00;75;75;
40947;PMS5003;49382;-25.924;28.194;2023-04-25T00:48:26;77;76;
40947;PMS5003;49382;-25.924;28.194;2023-04-25T00:50:52;72;70;
40947;PMS5003;49382;-25.924;28.194;2023-04-25T00:53:17;72;71;
40947;PMS5003;49382;-25.924;28.194;2023-04-25T00:55:42;78;78;
40947;PMS5003;49382;-25.924;28.194;2023-04-25T00:58:08;75;75;
40947;PMS5003;49382;-25.924;28.194;2023-04-25T01:00:34;71;71;
40947;PMS5003;49382;-25.924;28.194;2023-04-25T01:02:59;65;65;
40947;PMS5003;49382;-25.924;28.194;2023-04-25T01:05:25;61;61;
40947;PMS5003;49382;-25.924;28.194;2023-04-25T01:07:50;61;59;
40947;PMS5003;49382;-25.924;28.194;2023-04-25T01:10:16;54;52;
40947;PMS5003;49382;-25.924;28.194;2023-04-25T01:12:41;52;51;
40947;PMS5003;49382;-25.924;28.194;2023-04-25T01:15:06;50;50;
40947;PMS5003;49382;-25.924;28.194;2023-04-25T01:17:31;48;47;
40947;PMS5003;49382;-25.924;28.194;2023-04-25T01:19:57;44;43;
40947;PMS5003;49382;-25.924;28.194;2023-04-25T01:22:22;40;40;
40947;PMS5003;49382;-25.924;28.194;2023-04-25T01:24:48;40;39;
40947;PMS5003;49382;-25.924;28.194;2023-04-25T01:29:39;44;43;
40947;PMS5003;49382;-25.924;28.194;2023-04-25T01:32:05;41;41;
40947;PMS5003;49382;-25.924;28.194;2023-04-25T01:34:30;44;44;
40947;PMS5003;49382;-25.924;28.194;2023-04-25T01:36:55;42;42;
40947;PMS5003;49382;-25.924;28.194;2023-04-25T01:39:21;39;38;
40947;PMS5003;49382;-25.924;28.194;2023-04-25T01:41:46;42;42;
40947;PMS5003;49382;-25.924;28.194;2023-04-25T01:44:12;37;36;
40947;PMS5003;49382;-25.924;28.194;2023-04-25T01:46:37;44;42;
40947;PMS5003;49382;-25.924;28.194;2023-04-25T01:49:07;35;35;
40947;PMS5003;49382;-25.924;28.194;2023-04-25T01:51:28;42;42;
40947;PMS5003;49382;-25.924;28.194;2023-04-25T01:53:53;43;42;
40947;PMS5003;49382;-25.924;28.194;2023-04-25T01:56:18;52;51;
40947;PMS5003;49382;-25.924;28.194;2023-04-25T01:58:43;56;53;
40947;PMS5003;49382;-25.924;28.194;2023-04-25T02:01:09;54;52;
40947;PMS5003;49382;-25.924;28.194;2023-04-25T02:03:36;52;51;
40947;PMS5003;49382;-25.924;28.194;2023-04-25T02:05:59;52;51;
40947;PMS5003;49382;-25.924;28.194;2023-04-25T02:08:25;44;43;
40947;PMS5003;49382;-25.924;28.194;2023-04-25T02:10:50;41;40;
40947;PMS5003;49382;-25.924;28.194;2023-04-25T02:13:16;37;37;
40947;PMS5003;49382;-25.924;28.194;2023-04-25T02:15:41;36;35;
40947;PMS5003;49382;-25.924;28.194;2023-04-25T02:18:07;39;39;
40947;PMS5003;49382;-25.924;28.194;2023-04-25T02:20:32;36;33;
40947;PMS5003;49382;-25.924;28.194;2023-04-25T02:22:57;36;35;
40947;PMS5003;49382;-25.924;28.194;2023-04-25T02:25:23;37;37;
40947;PMS5003;49382;-25.924;28.194;2023-04-25T02:27:48;32;32;
40947;PMS5003;49382;-25.924;28.194;2023-04-25T02:30:14;35;35;
40947;PMS5003;49382;-25.924;28.194;2023-04-25T02:32:39;35;34;
40947;PMS5003;49382;-25.924;28.194;2023-04-25T02:35:05;39;39;
40947;PMS5003;49382;-25.924;28.194;2023-04-25T02:37:30;34;34;
40947;PMS5003;49382;-25.924;28.194;2023-04-25T02:39:55;39;38;
40947;PMS5003;49382;-25.924;28.194;2023-04-25T02:42:20;37;37;
40947;PMS5003;49382;-25.924;28.194;2023-04-25T02:44:46;38;38;
40947;PMS5003;49382;-25.924;28.194;2023-04-25T02:47:11;38;38;
40947;PMS5003;49382;-25.924;28.194;2023-04-25T02:49:37;34;33;
40947;PMS5003;49382;-25.924;28.194;2023-04-25T02:52:02;37;37;
40947;PMS5003;49382;-25.924;28.194;2023-04-25T02:54:27;38;38;
40947;PMS5003;49382;-25.924;28.194;2023-04-25T02:56:53;45;43;
40947;PMS5003;49382;-25.924;28.194;2023-04-25T02:59:18;38;37;
40947;PMS5003;49382;-25.924;28.194;2023-04-25T03:06:35;38;36;
40947;PMS5003;49382;-25.924;28.194;2023-04-25T03:09:00;36;35;
40947;PMS5003;49382;-25.924;28.194;2023-04-25T03:11:25;43;43;
40947;PMS5003;49382;-25.924;28.194;2023-04-25T03:13:51;39;39;
40947;PMS5003;49382;-25.924;28.194;2023-04-25T03:16:17;42;41;
40947;PMS5003;49382;-25.924;28.194;2023-04-25T03:18:42;37;37;
40947;PMS5003;49382;-25.924;28.194;2023-04-25T03:21:07;37;37;
40947;PMS5003;49382;-25.924;28.194;2023-04-25T03:23:33;39;39;
40947;PMS5003;49382;-25.924;28.194;2023-04-25T03:25:59;41;40;
40947;PMS5003;49382;-25.924;28.194;2023-04-25T03:28:24;40;39;
40947;PMS5003;49382;-25.924;28.194;2023-04-25T03:30:51;40;40;
40947;PMS5003;49382;-25.924;28.194;2023-04-25T03:33:15;42;41;
40947;PMS5003;49382;-25.924;28.194;2023-04-25T03:35:40;40;40;
40947;PMS5003;49382;-25.924;28.194;2023-04-25T03:38:05;41;39;
40947;PMS5003;49382;-25.924;28.194;2023-04-25T03:40:30;40;40;
40947;PMS5003;49382;-25.924;28.194;2023-04-25T03:42:56;40;40;
40947;PMS5003;49382;-25.924;28.194;2023-04-25T03:45:21;42;41;
40947;PMS5003;49382;-25.924;28.194;2023-04-25T03:47:47;36;36;
40947;PMS5003;49382;-25.924;28.194;2023-04-25T03:50:12;42;42;
40947;PMS5003;49382;-25.924;28.194;2023-04-25T03:52:37;42;42;
40947;PMS5003;49382;-25.924;28.194;2023-04-25T03:55:03;41;39;
40947;PMS5003;49382;-25.924;28.194;2023-04-25T03:57:28;37;37;
40947;PMS5003;49382;-25.924;28.194;2023-04-25T03:59:53;38;38;
40947;PMS5003;49382;-25.924;28.194;2023-04-25T04:02:19;37;37;
40947;PMS5003;49382;-25.924;28.194;2023-04-25T04:04:45;37;36;
40947;PMS5003;49382;-25.924;28.194;2023-04-25T04:07:10;40;39;
40947;PMS5003;49382;-25.924;28.194;2023-04-25T04:09:36;38;38;
40947;PMS5003;49382;-25.924;28.194;2023-04-25T04:12:01;39;39;
40947;PMS5003;49382;-25.924;28.194;2023-04-25T04:14:26;37;37;
40947;PMS5003;49382;-25.924;28.194;2023-04-25T04:16:52;39;39;
40947;PMS5003;49382;-25.924;28.194;2023-04-25T04:19:17;40;39;
40947;PMS5003;49382;-25.924;28.194;2023-04-25T04:21:42;41;41;
40947;PMS5003;49382;-25.924;28.194;2023-04-25T04:24:08;45;45;
40947;PMS5003;49382;-25.924;28.194;2023-04-25T04:26:34;45;45;
40947;PMS5003;49382;-25.924;28.194;2023-04-25T04:28:59;44;44;
40947;PMS5003;49382;-25.924;28.194;2023-04-25T04:31:25;40;40;
40947;PMS5003;49382;-25.924;28.194;2023-04-25T04:33:51;41;41;
40947;PMS5003;49382;-25.924;28.194;2023-04-25T04:36:16;39;39;
40947;PMS5003;49382;-25.924;28.194;2023-04-25T04:38:41;38;37;
40947;PMS5003;49382;-25.924;28.194;2023-04-25T04:41:07;40;39;
40947;PMS5003;49382;-25.924;28.194;2023-04-25T04:43:32;39;39;
40947;PMS5003;49382;-25.924;28.194;2023-04-25T04:45:58;38;38;
40947;PMS5003;49382;-25.924;28.194;2023-04-25T04:48:23;40;39;
40947;PMS5003;49382;-25.924;28.194;2023-04-25T04:50:48;44;44;
40947;PMS5003;49382;-25.924;28.194;2023-04-25T04:53:14;42;42;
40947;PMS5003;49382;-25.924;28.194;2023-04-25T04:55:40;40;40;
40947;PMS5003;49382;-25.924;28.194;2023-04-25T04:58:05;46;45;
40947;PMS5003;49382;-25.924;28.194;2023-04-25T05:00:30;40;40;
40947;PMS5003;49382;-25.924;28.194;2023-04-25T05:02:56;39;39;
40947;PMS5003;49382;-25.924;28.194;2023-04-25T05:05:21;42;41;
40947;PMS5003;49382;-25.924;28.194;2023-04-25T05:07:46;40;40;
40947;PMS5003;49382;-25.924;28.194;2023-04-25T05:10:11;35;35;
40947;PMS5003;49382;-25.924;28.194;2023-04-25T05:12:37;46;44;
40947;PMS5003;49382;-25.924;28.194;2023-04-25T05:15:03;49;49;
40947;PMS5003;49382;-25.924;28.194;2023-04-25T05:17:28;45;43;
40947;PMS5003;49382;-25.924;28.194;2023-04-25T05:19:53;45;44;
40947;PMS5003;49382;-25.924;28.194;2023-04-25T05:22:18;41;41;
40947;PMS5003;49382;-25.924;28.194;2023-04-25T05:24:43;44;42;
40947;PMS5003;49382;-25.924;28.194;2023-04-25T05:27:09;43;43;
40947;PMS5003;49382;-25.924;28.194;2023-04-25T05:29:34;37;37;
40947;PMS5003;49382;-25.924;28.194;2023-04-25T05:32:00;38;38;
40947;PMS5003;49382;-25.924;28.194;2023-04-25T05:34:25;36;35;
40947;PMS5003;49382;-25.924;28.194;2023-04-25T05:36:50;41;40;
40947;PMS5003;49382;-25.924;28.194;2023-04-25T05:39:16;42;42;
40947;PMS5003;49382;-25.924;28.194;2023-04-25T05:41:41;41;41;
40947;PMS5003;49382;-25.924;28.194;2023-04-25T05:44:07;48;48;
40947;PMS5003;49382;-25.924;28.194;2023-04-25T05:46:32;53;52;
40947;PMS5003;49382;-25.924;28.194;2023-04-25T05:48:57;54;53;
40947;PMS5003;49382;-25.924;28.194;2023-04-25T05:51:23;52;50;
40947;PMS5003;49382;-25.924;28.194;2023-04-25T05:53:48;47;47;
40947;PMS5003;49382;-25.924;28.194;2023-04-25T05:56:13;50;49;
40947;PMS5003;49382;-25.924;28.194;2023-04-25T05:58:38;43;41;
40947;PMS5003;49382;-25.924;28.194;2023-04-25T06:01:03;44;42;
40947;PMS5003;49382;-25.924;28.194;2023-04-25T06:03:29;45;44;
40947;PMS5003;49382;-25.924;28.194;2023-04-25T06:05:54;46;45;
40947;PMS5003;49382;-25.924;28.194;2023-04-25T06:08:20;42;41;
40947;PMS5003;49382;-25.924;28.194;2023-04-25T06:10:45;38;37;
40947;PMS5003;49382;-25.924;28.194;2023-04-25T06:13:10;37;37;
40947;PMS5003;49382;-25.924;28.194;2023-04-25T06:15:35;34;34;
40947;PMS5003;49382;-25.924;28.194;2023-04-25T06:18:01;32;31;
40947;PMS5003;49382;-25.924;28.194;2023-04-25T06:20:27;36;35;
40947;PMS5003;49382;-25.924;28.194;2023-04-25T06:22:52;88;88;
40947;PMS5003;49382;-25.924;28.194;2023-04-25T06:25:17;41;41;
40947;PMS5003;49382;-25.924;28.194;2023-04-25T06:27:43;43;42;
40947;PMS5003;49382;-25.924;28.194;2023-04-25T06:30:09;52;49;
40947;PMS5003;49382;-25.924;28.194;2023-04-25T06:32:33;37;36;
40947;PMS5003;49382;-25.924;28.194;2023-04-25T06:34:59;43;41;
40947;PMS5003;49382;-25.924;28.194;2023-04-25T06:37:24;38;37;
40947;PMS5003;49382;-25.924;28.194;2023-04-25T06:39:51;35;34;
40947;PMS5003;49382;-25.924;28.194;2023-04-25T06:42:15;36;35;
40947;PMS5003;49382;-25.924;28.194;2023-04-25T06:44:41;39;37;
40947;PMS5003;49382;-25.924;28.194;2023-04-25T06:47:06;41;40;
40947;PMS5003;49382;-25.924;28.194;2023-04-25T06:49:31;58;58;
40947;PMS5003;49382;-25.924;28.194;2023-04-25T06:51:57;46;45;
40947;PMS5003;49382;-25.924;28.194;2023-04-25T06:54:23;52;51;
40947;PMS5003;49382;-25.924;28.194;2023-04-25T06:56:48;42;40;
40947;PMS5003;49382;-25.924;28.194;2023-04-25T06:59:13;43;42;
40947;PMS5003;49382;-25.924;28.194;2023-04-25T07:01:39;35;34;
40947;PMS5003;49382;-25.924;28.194;2023-04-25T07:04:05;42;40;
40947;PMS5003;49382;-25.924;28.194;2023-04-25T07:06:31;46;44;
40947;PMS5003;49382;-25.924;28.194;2023-04-25T07:08:56;44;42;
40947;PMS5003;49382;-25.924;28.194;2023-04-25T07:11:21;46;45;
40947;PMS5003;49382;-25.924;28.194;2023-04-25T07:13:46;49;46;
40947;PMS5003;49382;-25.924;28.194;2023-04-25T07:16:11;49;48;
40947;PMS5003;49382;-25.924;28.194;2023-04-25T07:18:37;39;37;
40947;PMS5003;49382;-25.924;28.194;2023-04-25T07:21:03;38;37;
40947;PMS5003;49382;-25.924;28.194;2023-04-25T07:23:28;35;34;
40947;PMS5003;49382;-25.924;28.194;2023-04-25T07:25:54;39;38;
40947;PMS5003;49382;-25.924;28.194;2023-04-25T07:28:19;67;67;
40947;PMS5003;49382;-25.924;28.194;2023-04-25T07:30:44;80;79;
40947;PMS5003;49382;-25.924;28.194;2023-04-25T07:33:10;36;36;
40947;PMS5003;49382;-25.924;28.194;2023-04-25T07:35:36;46;42;
40947;PMS5003;49382;-25.924;28.194;2023-04-25T07:38:02;46;44;
40947;PMS5003;49382;-25.924;28.194;2023-04-25T07:40:27;45;45;
40947;PMS5003;49382;-25.924;28.194;2023-04-25T07:42:53;26;25;
40947;PMS5003;49382;-25.924;28.194;2023-04-25T07:45:19;28;28;
40947;PMS5003;49382;-25.924;28.194;2023-04-25T07:47:44;34;32;
40947;PMS5003;49382;-25.924;28.194;2023-04-25T07:50:09;28;27;
40947;PMS5003;49382;-25.924;28.194;2023-04-25T07:52:34;27;27;
40947;PMS5003;49382;-25.924;28.194;2023-04-25T07:55:00;26;25;
40947;PMS5003;49382;-25.924;28.194;2023-04-25T07:57:25;28;27;
40947;PMS5003;49382;-25.924;28.194;2023-04-25T07:59:51;28;26;
40947;PMS5003;49382;-25.924;28.194;2023-04-25T08:02:16;27;26;
40947;PMS5003;49382;-25.924;28.194;2023-04-25T08:04:42;25;24;
40947;PMS5003;49382;-25.924;28.194;2023-04-25T08:07:08;26;25;
40947;PMS5003;49382;-25.924;28.194;2023-04-25T08:09:33;27;24;
40947;PMS5003;49382;-25.924;28.194;2023-04-25T08:11:59;28;26;
40947;PMS5003;49382;-25.924;28.194;2023-04-25T08:14:24;16;15;
40947;PMS5003;49382;-25.924;28.194;2023-04-25T08:16:51;15;15;
40947;PMS5003;49382;-25.924;28.194;2023-04-25T08:19:16;7;7;
40947;PMS5003;49382;-25.924;28.194;2023-04-25T08:21:41;18;18;
40947;PMS5003;49382;-25.924;28.194;2023-04-25T08:24:07;24;24;
40947;PMS5003;49382;-25.924;28.194;2023-04-25T08:26:32;10;9;
40947;PMS5003;49382;-25.924;28.194;2023-04-25T08:28:58;7;7;
40947;PMS5003;49382;-25.924;28.194;2023-04-25T08:31:24;9;9;
40947;PMS5003;49382;-25.924;28.194;2023-04-25T08:33:50;11;11;
40947;PMS5003;49382;-25.924;28.194;2023-04-25T08:36:15;11;10;
40947;PMS5003;49382;-25.924;28.194;2023-04-25T08:38:41;14;13;
40947;PMS5003;49382;-25.924;28.194;2023-04-25T08:41:07;13;12;
40947;PMS5003;49382;-25.924;28.194;2023-04-25T08:43:32;12;12;
40947;PMS5003;49382;-25.924;28.194;2023-04-25T08:45:58;12;12;
40947;PMS5003;49382;-25.924;28.194;2023-04-25T08:48:24;12;12;
40947;PMS5003;49382;-25.924;28.194;2023-04-25T08:50:50;11;10;
40947;PMS5003;49382;-25.924;28.194;2023-04-25T08:53:15;12;12;
40947;PMS5003;49382;-25.924;28.194;2023-04-25T08:55:41;13;13;
40947;PMS5003;49382;-25.924;28.194;2023-04-25T08:58:06;14;13;
40947;PMS5003;49382;-25.924;28.194;2023-04-25T09:00:32;13;13;
40947;PMS5003;49382;-25.924;28.194;2023-04-25T09:02:58;12;12;
40947;PMS5003;49382;-25.924;28.194;2023-04-25T09:05:24;13;13;
40947;PMS5003;49382;-25.924;28.194;2023-04-25T09:07:50;14;14;
40947;PMS5003;49382;-25.924;28.194;2023-04-25T09:10:15;13;13;
40947;PMS5003;49382;-25.924;28.194;2023-04-25T09:12:41;15;14;
40947;PMS5003;49382;-25.924;28.194;2023-04-25T09:15:08;17;16;
40947;PMS5003;49382;-25.924;28.194;2023-04-25T09:17:32;14;13;
40947;PMS5003;49382;-25.924;28.194;2023-04-25T09:22:24;17;16;
40947;PMS5003;49382;-25.924;28.194;2023-04-25T09:24:50;17;15;
40947;PMS5003;49382;-25.924;28.194;2023-04-25T09:27:17;14;14;
40947;PMS5003;49382;-25.924;28.194;2023-04-25T09:29:41;13;13;
40947;PMS5003;49382;-25.924;28.194;2023-04-25T09:32:11;13;12;
40947;PMS5003;49382;-25.924;28.194;2023-04-25T09:34:35;12;12;
40947;PMS5003;49382;-25.924;28.194;2023-04-25T09:37:01;12;12;
40947;PMS5003;49382;-25.924;28.194;2023-04-25T09:39:24;12;12;
40947;PMS5003;49382;-25.924;28.194;2023-04-25T09:41:53;14;14;
40947;PMS5003;49382;-25.924;28.194;2023-04-25T09:44:19;13;13;
40947;PMS5003;49382;-25.924;28.194;2023-04-25T09:46:41;14;14;
40947;PMS5003;49382;-25.924;28.194;2023-04-25T09:49:07;17;17;
40947;PMS5003;49382;-25.924;28.194;2023-04-25T09:51:33;13;13;
40947;PMS5003;49382;-25.924;28.194;2023-04-25T09:53:59;13;13;
40947;PMS5003;49382;-25.924;28.194;2023-04-25T09:56:24;14;14;
40947;PMS5003;49382;-25.924;28.194;2023-04-25T09:58:50;14;14;
40947;PMS5003;49382;-25.924;28.194;2023-04-25T10:01:16;16;16;
40947;PMS5003;49382;-25.924;28.194;2023-04-25T10:03:42;15;15;
40947;PMS5003;49382;-25.924;28.194;2023-04-25T10:06:08;16;16;
40947;PMS5003;49382;-25.924;28.194;2023-04-25T10:08:34;18;18;
40947;PMS5003;49382;-25.924;28.194;2023-04-25T10:10:59;15;15;
40947;PMS5003;49382;-25.924;28.194;2023-04-25T10:13:25;17;17;
40947;PMS5003;49382;-25.924;28.194;2023-04-25T10:15:51;17;15;
40947;PMS5003;49382;-25.924;28.194;2023-04-25T10:18:16;20;20;
40947;PMS5003;49382;-25.924;28.194;2023-04-25T10:20:42;47;47;
40947;PMS5003;49382;-25.924;28.194;2023-04-25T10:23:10;24;24;
40947;PMS5003;49382;-25.924;28.194;2023-04-25T10:25:33;18;18;
40947;PMS5003;49382;-25.924;28.194;2023-04-25T10:27:59;20;19;
40947;PMS5003;49382;-25.924;28.194;2023-04-25T10:30:24;19;19;
40947;PMS5003;49382;-25.924;28.194;2023-04-25T10:32:51;20;20;
40947;PMS5003;49382;-25.924;28.194;2023-04-25T10:35:16;19;19;
40947;PMS5003;49382;-25.924;28.194;2023-04-25T10:40:09;32;31;
40947;PMS5003;49382;-25.924;28.194;2023-04-25T10:42:33;26;26;
40947;PMS5003;49382;-25.924;28.194;2023-04-25T10:45:01;53;53;
40947;PMS5003;49382;-25.924;28.194;2023-04-25T10:47:25;26;26;
40947;PMS5003;49382;-25.924;28.194;2023-04-25T10:49:49;54;53;
40947;PMS5003;49382;-25.924;28.194;2023-04-25T10:52:15;41;40;
40947;PMS5003;49382;-25.924;28.194;2023-04-25T10:54:41;95;95;
40947;PMS5003;49382;-25.924;28.194;2023-04-25T10:57:05;65;65;
40947;PMS5003;49382;-25.924;28.194;2023-04-25T10:59:30;59;59;
40947;PMS5003;49382;-25.924;28.194;2023-04-25T11:01:56;61;61;
40947;PMS5003;49382;-25.924;28.194;2023-04-25T11:04:21;67;67;
40947;PMS5003;49382;-25.924;28.194;2023-04-25T11:06:50;69;68;
40947;PMS5003;49382;-25.924;28.194;2023-04-25T11:09:12;26;26;
40947;PMS5003;49382;-25.924;28.194;2023-04-25T11:11:36;62;62;
40947;PMS5003;49382;-25.924;28.194;2023-04-25T11:14:01;62;62;
40947;PMS5003;49382;-25.924;28.194;2023-04-25T11:16:27;62;62;
40947;PMS5003;49382;-25.924;28.194;2023-04-25T11:18:53;37;36;
40947;PMS5003;49382;-25.924;28.194;2023-04-25T11:21:19;74;74;
40947;PMS5003;49382;-25.924;28.194;2023-04-25T11:23:44;58;58;
40947;PMS5003;49382;-25.924;28.194;2023-04-25T11:26:10;30;30;
40947;PMS5003;49382;-25.924;28.194;2023-04-25T11:28:35;42;42;
40947;PMS5003;49382;-25.924;28.194;2023-04-25T11:31:02;81;79;
40947;PMS5003;49382;-25.924;28.194;2023-04-25T11:33:26;22;22;
40947;PMS5003;49382;-25.924;28.194;2023-04-25T11:35:53;56;56;
40947;PMS5003;49382;-25.924;28.194;2023-04-25T11:38:17;104;104;
40947;PMS5003;49382;-25.924;28.194;2023-04-25T11:40:43;46;44;
40947;PMS5003;49382;-25.924;28.194;2023-04-25T11:43:08;57;57;
40947;PMS5003;49382;-25.924;28.194;2023-04-25T11:45:34;37;37;
40947;PMS5003;49382;-25.924;28.194;2023-04-25T11:47:59;34;34;
40947;PMS5003;49382;-25.924;28.194;2023-04-25T11:50:25;37;36;
40947;PMS5003;49382;-25.924;28.194;2023-04-25T11:52:51;32;32;
40947;PMS5003;49382;-25.924;28.194;2023-04-25T11:55:17;33;33;
40947;PMS5003;49382;-25.924;28.194;2023-04-25T11:57:42;29;29;
40947;PMS5003;49382;-25.924;28.194;2023-04-25T12:00:09;57;57;
40947;PMS5003;49382;-25.924;28.194;2023-04-25T12:02:32;33;32;
40947;PMS5003;49382;-25.924;28.194;2023-04-25T12:04:59;38;38;
40947;PMS5003;49382;-25.924;28.194;2023-04-25T12:07:28;39;38;
40947;PMS5003;49382;-25.924;28.194;2023-04-25T12:09:51;36;36;
40947;PMS5003;49382;-25.924;28.194;2023-04-25T12:12:15;37;36;
40947;PMS5003;49382;-25.924;28.194;2023-04-25T12:14:40;45;45;
40947;PMS5003;49382;-25.924;28.194;2023-04-25T12:17:06;34;33;
40947;PMS5003;49382;-25.924;28.194;2023-04-25T12:19:32;26;26;
40947;PMS5003;49382;-25.924;28.194;2023-04-25T12:21:57;22;22;
40947;PMS5003;49382;-25.924;28.194;2023-04-25T12:24:23;33;33;
40947;PMS5003;49382;-25.924;28.194;2023-04-25T12:26:49;23;23;
40947;PMS5003;49382;-25.924;28.194;2023-04-25T12:29:15;27;27;
40947;PMS5003;49382;-25.924;28.194;2023-04-25T12:31:38;30;29;
40947;PMS5003;49382;-25.924;28.194;2023-04-25T12:34:04;31;31;
40947;PMS5003;49382;-25.924;28.194;2023-04-25T12:36:30;50;48;
40947;PMS5003;49382;-25.924;28.194;2023-04-25T12:38:55;52;52;
40947;PMS5003;49382;-25.924;28.194;2023-04-25T12:41:20;75;75;
40947;PMS5003;49382;-25.924;28.194;2023-04-25T12:43:46;113;110;
40947;PMS5003;49382;-25.924;28.194;2023-04-25T12:46:11;137;136;
40947;PMS5003;49382;-25.924;28.194;2023-04-25T12:48:37;137;137;
40947;PMS5003;49382;-25.924;28.194;2023-04-25T12:51:02;127;127;
40947;PMS5003;49382;-25.924;28.194;2023-04-25T12:53:27;136;136;
40947;PMS5003;49382;-25.924;28.194;2023-04-25T12:55:53;163;163;
40947;PMS5003;49382;-25.924;28.194;2023-04-25T12:58:18;211;211;
40947;PMS5003;49382;-25.924;28.194;2023-04-25T13:00:44;158;157;
40947;PMS5003;49382;-25.924;28.194;2023-04-25T13:03:09;163;162;
40947;PMS5003;49382;-25.924;28.194;2023-04-25T13:05:34;171;171;
40947;PMS5003;49382;-25.924;28.194;2023-04-25T13:08:00;103;102;
40947;PMS5003;49382;-25.924;28.194;2023-04-25T13:10:26;74;72;
40947;PMS5003;49382;-25.924;28.194;2023-04-25T13:12:51;47;47;
40947;PMS5003;49382;-25.924;28.194;2023-04-25T13:15:17;26;25;
40947;PMS5003;49382;-25.924;28.194;2023-04-25T13:17:42;32;32;
40947;PMS5003;49382;-25.924;28.194;2023-04-25T13:20:09;26;26;
40947;PMS5003;49382;-25.924;28.194;2023-04-25T13:22:33;28;27;
40947;PMS5003;49382;-25.924;28.194;2023-04-25T13:24:59;25;24;
40947;PMS5003;49382;-25.924;28.194;2023-04-25T13:27:24;23;23;
40947;PMS5003;49382;-25.924;28.194;2023-04-25T13:29:51;23;23;
40947;PMS5003;49382;-25.924;28.194;2023-04-25T13:32:16;23;23;
40947;PMS5003;49382;-25.924;28.194;2023-04-25T13:34:42;25;25;
40947;PMS5003;49382;-25.924;28.194;2023-04-25T13:37:07;29;29;
40947;PMS5003;49382;-25.924;28.194;2023-04-25T13:39:33;24;23;
40947;PMS5003;49382;-25.924;28.194;2023-04-25T13:41:59;27;27;
40947;PMS5003;49382;-25.924;28.194;2023-04-25T13:44:25;27;27;
40947;PMS5003;49382;-25.924;28.194;2023-04-25T13:46:50;27;26;
40947;PMS5003;49382;-25.924;28.194;2023-04-25T13:49:16;25;25;
40947;PMS5003;49382;-25.924;28.194;2023-04-25T13:51:42;29;29;
40947;PMS5003;49382;-25.924;28.194;2023-04-25T13:54:08;27;27;
40947;PMS5003;49382;-25.924;28.194;2023-04-25T13:56:34;27;26;
40947;PMS5003;49382;-25.924;28.194;2023-04-25T13:58:59;29;29;
40947;PMS5003;49382;-25.924;28.194;2023-04-25T14:01:25;29;29;
40947;PMS5003;49382;-25.924;28.194;2023-04-25T14:03:51;22;22;
40947;PMS5003;49382;-25.924;28.194;2023-04-25T14:06:16;27;26;
40947;PMS5003;49382;-25.924;28.194;2023-04-25T14:08:42;22;22;
40947;PMS5003;49382;-25.924;28.194;2023-04-25T14:11:08;29;28;
40947;PMS5003;49382;-25.924;28.194;2023-04-25T14:13:34;29;29;
40947;PMS5003;49382;-25.924;28.194;2023-04-25T14:15:59;31;31;
40947;PMS5003;49382;-25.924;28.194;2023-04-25T14:18:24;33;33;
40947;PMS5003;49382;-25.924;28.194;2023-04-25T14:20:49;28;28;
40947;PMS5003;49382;-25.924;28.194;2023-04-25T14:23:15;30;30;
40947;PMS5003;49382;-25.924;28.194;2023-04-25T14:25:40;38;37;
40947;PMS5003;49382;-25.924;28.194;2023-04-25T14:28:06;30;30;
40947;PMS5003;49382;-25.924;28.194;2023-04-25T14:30:31;41;41;
40947;PMS5003;49382;-25.924;28.194;2023-04-25T14:32:56;33;33;
40947;PMS5003;49382;-25.924;28.194;2023-04-25T14:35:22;42;41;
40947;PMS5003;49382;-25.924;28.194;2023-04-25T14:37:48;43;43;
40947;PMS5003;49382;-25.924;28.194;2023-04-25T14:40:13;30;30;
40947;PMS5003;49382;-25.924;28.194;2023-04-25T14:42:39;71;71;
40947;PMS5003;49382;-25.924;28.194;2023-04-25T14:45:05;37;37;
40947;PMS5003;49382;-25.924;28.194;2023-04-25T14:47:29;44;44;
40947;PMS5003;49382;-25.924;28.194;2023-04-25T14:49:55;39;39;
40947;PMS5003;49382;-25.924;28.194;2023-04-25T14:52:20;40;40;
40947;PMS5003;49382;-25.924;28.194;2023-04-25T14:54:45;40;40;
40947;PMS5003;49382;-25.924;28.194;2023-04-25T14:57:11;58;58;
40947;PMS5003;49382;-25.924;28.194;2023-04-25T14:59:36;46;46;
40947;PMS5003;49382;-25.924;28.194;2023-04-25T15:02:02;46;46;
40947;PMS5003;49382;-25.924;28.194;2023-04-25T15:04:27;40;40;
40947;PMS5003;49382;-25.924;28.194;2023-04-25T15:06:53;26;26;
40947;PMS5003;49382;-25.924;28.194;2023-04-25T15:09:19;27;27;
40947;PMS5003;49382;-25.924;28.194;2023-04-25T15:11:44;49;48;
40947;PMS5003;49382;-25.924;28.194;2023-04-25T15:14:10;92;92;
40947;PMS5003;49382;-25.924;28.194;2023-04-25T15:16:36;23;23;
40947;PMS5003;49382;-25.924;28.194;2023-04-25T15:19:01;23;23;
40947;PMS5003;49382;-25.924;28.194;2023-04-25T15:21:27;25;25;
40947;PMS5003;49382;-25.924;28.194;2023-04-25T15:23:52;21;20;
40947;PMS5003;49382;-25.924;28.194;2023-04-25T15:26:18;17;17;
40947;PMS5003;49382;-25.924;28.194;2023-04-25T15:28:44;29;29;
40947;PMS5003;49382;-25.924;28.194;2023-04-25T15:31:09;22;22;
40947;PMS5003;49382;-25.924;28.194;2023-04-25T15:33:34;23;23;
40947;PMS5003;49382;-25.924;28.194;2023-04-25T15:35:59;28;28;
40947;PMS5003;49382;-25.924;28.194;2023-04-25T15:38:24;26;25;
40947;PMS5003;49382;-25.924;28.194;2023-04-25T15:40:51;25;25;
40947;PMS5003;49382;-25.924;28.194;2023-04-25T15:43:16;49;49;
40947;PMS5003;49382;-25.924;28.194;2023-04-25T15:45:42;24;24;
40947;PMS5003;49382;-25.924;28.194;2023-04-25T15:48:07;26;26;